createdAt,value
2019-01-24T00:01:20.888Z,99.10
2019-01-24T00:03:47.933Z,91.03
2019-01-24T00:06:14.982Z,94.30
2019-01-24T00:08:42.067Z,99.97
2019-01-24T00:11:09.126Z,92.53
2019-01-24T00:13:36.175Z,95.33
2019-01-24T00:16:03.668Z,108.93
2019-01-24T00:18:30.835Z,102.37
2019-01-24T00:20:57.883Z,94.13
2019-01-24T00:23:24.991Z,96.33
2019-01-24T00:25:52.045Z,91.57
2019-01-24T00:28:19.134Z,95.87
2019-01-24T00:30:46.344Z,95.20
2019-01-24T00:33:13.369Z,104.60
2019-01-24T00:35:40.440Z,100.37
2019-01-24T00:38:07.670Z,104.00
2019-01-24T00:40:34.725Z,97.03
2019-01-24T00:43:01.780Z,103.50
2019-01-24T00:45:28.928Z,100.13
2019-01-24T00:47:56.012Z,106.53
2019-01-24T00:50:23.119Z,100.03
2019-01-24T00:52:50.220Z,104.27
2019-01-24T00:55:17.260Z,104.47
2019-01-24T00:57:44.401Z,98.67
2019-01-24T01:00:15.204Z,109.67
2019-01-24T01:02:42.463Z,114.27
2019-01-24T01:05:11.720Z,105.53
2019-01-24T01:07:38.765Z,104.90
2019-01-24T01:10:08.583Z,100.67
2019-01-24T01:12:35.701Z,102.63
2019-01-24T01:15:05.044Z,99.17
2019-01-24T01:17:32.094Z,111.33
2019-01-24T01:19:59.168Z,104.37
2019-01-24T01:22:26.241Z,108.90
2019-01-24T01:24:53.272Z,105.43
2019-01-24T01:27:20.346Z,100.53
2019-01-24T01:29:47.373Z,110.60
2019-01-24T01:32:14.436Z,106.57
2019-01-24T01:34:41.497Z,104.00
2019-01-24T01:37:08.535Z,112.80
2019-01-24T01:39:36.766Z,105.37
2019-01-24T01:42:03.977Z,112.10
2019-01-24T01:44:31.289Z,99.33
2019-01-24T01:46:58.324Z,104.13
2019-01-24T01:49:25.405Z,104.37
2019-01-24T01:51:52.429Z,109.27
2019-01-24T01:54:19.509Z,105.87
2019-01-24T01:56:46.980Z,107.93
2019-01-24T01:59:14.044Z,99.00
2019-01-24T02:01:41.068Z,106.30
2019-01-24T02:04:08.105Z,100.83
2019-01-24T02:06:35.251Z,106.13
2019-01-24T02:09:03.937Z,104.97
2019-01-24T02:11:31.000Z,107.17
2019-01-24T02:13:58.071Z,106.07
2019-01-24T02:16:25.308Z,107.53
2019-01-24T02:18:52.354Z,106.97
2019-01-24T02:21:19.416Z,103.37
2019-01-24T02:23:46.449Z,105.50
2019-01-24T02:26:13.487Z,101.23
2019-01-24T02:28:40.542Z,106.00
2019-01-24T02:31:07.906Z,108.70
2019-01-24T02:33:35.112Z,103.40
2019-01-24T02:36:02.239Z,106.33
2019-01-24T02:38:29.278Z,108.27
2019-01-24T02:40:56.360Z,105.60
2019-01-24T02:43:23.411Z,105.57
2019-01-24T02:46:08.956Z,101.13
2019-01-24T02:48:35.987Z,94.83
2019-01-24T02:51:03.032Z,95.73
2019-01-24T02:53:30.098Z,103.80
2019-01-24T02:55:57.187Z,95.00
2019-01-24T02:58:25.406Z,105.80
2019-01-24T03:00:52.483Z,104.77
2019-01-24T03:03:19.523Z,112.43
2019-01-24T03:05:46.661Z,107.10
2019-01-24T03:08:13.752Z,109.63
2019-01-24T03:10:40.814Z,115.53
2019-01-24T03:13:07.847Z,109.77
2019-01-24T03:15:34.962Z,107.23
2019-01-24T03:18:02.001Z,108.03
2019-01-24T03:20:29.036Z,104.87
2019-01-24T03:22:56.170Z,104.30
2019-01-24T03:25:23.218Z,105.43
2019-01-24T03:27:50.261Z,113.60
2019-01-24T03:30:19.126Z,105.67
2019-01-24T03:32:46.805Z,110.43
2019-01-24T03:35:19.612Z,110.37
2019-01-24T03:37:46.878Z,108.10
2019-01-24T03:40:15.827Z,114.80
2019-01-24T03:42:44.049Z,110.53
2019-01-24T03:45:12.780Z,104.37
2019-01-24T03:47:39.912Z,107.43
2019-01-24T03:50:09.854Z,115.40
2019-01-24T03:52:36.898Z,107.27
2019-01-24T03:55:05.378Z,108.13
2019-01-24T03:57:32.470Z,110.70
2019-01-24T03:59:59.494Z,98.87
2019-01-24T04:02:26.528Z,116.30
2019-01-24T04:04:53.577Z,109.23
2019-01-24T04:07:20.951Z,113.13
2019-01-24T04:09:47.985Z,106.43
2019-01-24T04:12:15.066Z,111.63
2019-01-24T04:14:42.174Z,107.27
2019-01-24T04:17:09.200Z,103.23
2019-01-24T04:19:36.317Z,109.87
2019-01-24T04:22:03.388Z,111.27
2019-01-24T04:24:30.437Z,106.50
2019-01-24T04:26:57.534Z,107.50
2019-01-24T04:29:24.587Z,108.17
2019-01-24T04:31:51.633Z,111.80
2019-01-24T04:34:18.711Z,111.47
2019-01-24T04:36:45.815Z,114.07
2019-01-24T04:39:31.190Z,113.37
2019-01-24T04:41:58.329Z,104.13
2019-01-24T04:44:25.360Z,115.67
2019-01-24T04:46:53.649Z,115.10
2019-01-24T04:49:20.675Z,109.77
2019-01-24T04:51:47.709Z,115.37
2019-01-24T04:54:14.826Z,108.60
2019-01-24T04:56:41.874Z,113.77
2019-01-24T04:59:08.937Z,97.60
2019-01-24T05:01:36.111Z,111.53
2019-01-24T05:04:03.458Z,123.10
2019-01-24T05:06:30.495Z,119.13
2019-01-24T05:08:57.671Z,109.77
2019-01-24T05:11:24.719Z,112.57
2019-01-24T05:13:51.776Z,108.53
2019-01-24T05:16:19.020Z,112.23
2019-01-24T05:18:46.068Z,109.60
2019-01-24T05:21:13.088Z,112.23
2019-01-24T05:23:40.169Z,118.83
2019-01-24T05:26:07.201Z,122.87
2019-01-24T05:28:34.266Z,118.83
2019-01-24T05:31:01.335Z,126.47
2019-01-24T05:33:30.178Z,115.70
2019-01-24T05:35:57.323Z,108.43
2019-01-24T05:38:24.463Z,120.37
2019-01-24T05:40:51.596Z,116.77
2019-01-24T05:43:18.631Z,114.13
2019-01-24T05:45:45.740Z,118.80
2019-01-24T05:48:12.839Z,112.83
2019-01-24T05:50:39.884Z,106.37
2019-01-24T05:53:06.957Z,112.80
2019-01-24T05:55:34.051Z,107.67
2019-01-24T05:58:01.148Z,114.43
2019-01-24T06:00:46.455Z,113.03
2019-01-24T06:03:13.521Z,113.93
2019-01-24T06:05:41.873Z,108.93
2019-01-24T06:08:09.248Z,122.60
2019-01-24T06:10:36.299Z,115.80
2019-01-24T06:13:03.464Z,110.80
2019-01-24T06:15:30.572Z,109.80
2019-01-24T06:17:57.627Z,123.63
2019-01-24T06:20:24.681Z,123.83
2019-01-24T06:22:51.804Z,118.33
2019-01-24T06:25:19.124Z,123.07
2019-01-24T06:27:46.171Z,116.60
2019-01-24T06:30:15.553Z,112.67
2019-01-24T06:32:42.669Z,118.37
2019-01-24T06:35:09.840Z,114.80
2019-01-24T06:37:36.962Z,122.73
2019-01-24T06:40:04.866Z,123.73
2019-01-24T06:42:31.975Z,114.33
2019-01-24T06:44:59.044Z,115.37
2019-01-24T06:47:26.112Z,108.40
2019-01-24T06:49:53.244Z,113.23
2019-01-24T06:52:20.393Z,128.40
2019-01-24T06:54:47.527Z,118.80
2019-01-24T06:57:14.624Z,116.20
2019-01-24T06:59:41.722Z,115.60
2019-01-24T07:02:08.846Z,112.80
2019-01-24T07:04:35.919Z,116.27
2019-01-24T07:07:03.075Z,114.90
2019-01-24T07:09:30.120Z,122.57
2019-01-24T07:11:57.307Z,109.80
2019-01-24T07:14:24.367Z,115.87
2019-01-24T07:16:51.410Z,119.43
2019-01-24T07:19:19.900Z,112.73
2019-01-24T07:21:46.976Z,124.97
2019-01-24T07:24:14.041Z,111.80
2019-01-24T07:26:41.146Z,120.77
2019-01-24T07:29:08.194Z,125.23
2019-01-24T07:35:18.341Z,118.00
2019-01-24T07:37:45.546Z,112.77
2019-01-24T07:40:14.123Z,111.00
2019-01-24T07:42:41.576Z,120.77
2019-01-24T07:45:11.697Z,116.23
2019-01-24T07:47:38.755Z,113.50
2019-01-24T07:50:07.635Z,120.87
2019-01-24T07:52:34.686Z,128.03
2019-01-24T07:55:01.846Z,114.80
2019-01-24T07:57:41.760Z,121.30
2019-01-24T08:00:12.529Z,118.97
2019-01-24T08:02:39.670Z,119.67
2019-01-24T08:05:09.289Z,113.30
2019-01-24T08:07:36.343Z,115.70
2019-01-24T08:10:05.114Z,111.63
2019-01-24T08:12:32.280Z,120.70
2019-01-24T08:14:59.384Z,112.47
2019-01-24T08:17:26.521Z,113.43
2019-01-24T08:19:53.767Z,112.13
2019-01-24T08:22:20.835Z,114.20
2019-01-24T08:24:49.616Z,110.67
2019-01-24T08:27:17.137Z,132.53
2019-01-24T08:29:44.171Z,123.70
2019-01-24T08:32:11.232Z,126.83
2019-01-24T08:34:38.302Z,124.37
2019-01-24T08:37:05.404Z,121.07
2019-01-24T08:39:32.457Z,117.23
2019-01-24T08:41:59.621Z,122.97
2019-01-24T08:44:26.724Z,115.50
2019-01-24T08:46:53.793Z,114.60
2019-01-24T08:49:21.086Z,114.30
2019-01-24T08:51:48.155Z,116.50
2019-01-24T08:54:15.204Z,117.57
2019-01-24T08:56:42.291Z,112.23
2019-01-24T08:59:09.383Z,125.03
2019-01-24T09:01:36.464Z,122.30
2019-01-24T09:04:03.675Z,108.37
2019-01-24T09:06:30.745Z,118.30
2019-01-24T09:08:57.786Z,108.93
2019-01-24T09:11:25.073Z,107.17
2019-01-24T09:13:52.125Z,114.37
2019-01-24T09:17:16.035Z,110.33
2019-01-24T09:19:43.206Z,118.10
2019-01-24T09:22:10.255Z,108.63
2019-01-24T09:24:37.335Z,114.33
2019-01-24T09:27:04.545Z,113.53
2019-01-24T09:29:31.627Z,116.07
2019-01-24T09:31:59.904Z,118.90
2019-01-24T09:34:28.783Z,117.87
2019-01-24T09:36:56.052Z,115.40
2019-01-24T09:39:23.108Z,110.87
2019-01-24T09:41:50.152Z,117.60
2019-01-24T09:44:17.286Z,118.80
2019-01-24T09:46:44.336Z,114.87
2019-01-24T09:49:11.392Z,111.63
2019-01-24T09:51:38.514Z,114.70
2019-01-24T09:54:05.656Z,120.07
2019-01-24T09:56:32.762Z,122.17
2019-01-24T09:58:59.952Z,110.40
2019-01-24T10:01:27.068Z,129.50
2019-01-24T10:03:54.216Z,117.43
2019-01-24T10:06:21.276Z,119.03
2019-01-24T10:08:48.329Z,109.87
2019-01-24T10:11:15.375Z,112.53
2019-01-24T10:13:42.527Z,114.67
2019-01-24T10:16:09.708Z,107.67
2019-01-24T10:18:36.850Z,115.57
2019-01-24T10:21:03.935Z,121.97
2019-01-24T10:23:31.017Z,105.77
2019-01-24T10:25:58.056Z,119.60
2019-01-24T10:28:25.103Z,121.53
2019-01-24T10:30:52.276Z,116.30
2019-01-24T10:33:19.337Z,117.13
2019-01-24T10:35:46.593Z,116.43
2019-01-24T10:38:13.668Z,107.37
2019-01-24T10:40:40.717Z,113.50
2019-01-24T10:43:07.860Z,115.43
2019-01-24T10:45:34.932Z,118.80
2019-01-24T10:48:02.012Z,114.67
2019-01-24T10:50:29.030Z,107.30
2019-01-24T10:52:56.405Z,114.73
2019-01-24T10:55:25.605Z,120.83
2019-01-24T10:57:54.090Z,114.43
2019-01-24T11:00:24.074Z,105.13
2019-01-24T11:02:51.217Z,114.67
2019-01-24T11:05:18.642Z,117.80
2019-01-24T11:07:46.248Z,118.27
2019-01-24T11:10:14.871Z,121.77
2019-01-24T11:12:41.961Z,118.27
2019-01-24T11:15:11.937Z,112.83
2019-01-24T11:17:38.987Z,111.90
2019-01-24T11:20:08.135Z,112.30
2019-01-24T11:22:35.202Z,112.27
2019-01-24T11:25:02.343Z,116.53
2019-01-24T11:27:29.409Z,110.03
2019-01-24T11:29:56.532Z,111.50
2019-01-24T11:32:23.560Z,116.37
2019-01-24T11:34:50.662Z,116.20
2019-01-24T11:37:17.715Z,115.80
2019-01-24T11:39:44.768Z,111.83
2019-01-24T11:42:11.850Z,108.27
2019-01-24T11:44:38.883Z,112.03
2019-01-24T11:47:05.929Z,111.93
2019-01-24T11:49:32.992Z,114.97
2019-01-24T11:52:00.042Z,113.03
2019-01-24T11:54:28.723Z,115.47
2019-01-24T11:56:55.784Z,104.20
2019-01-24T11:59:22.927Z,103.90
2019-01-24T12:01:49.949Z,113.80
2019-01-24T12:04:17.042Z,122.60
2019-01-24T12:06:44.114Z,116.90
2019-01-24T12:09:11.165Z,113.50
2019-01-24T12:11:38.253Z,114.73
2019-01-24T12:14:05.621Z,114.63
2019-01-24T12:16:33.785Z,115.27
2019-01-24T12:19:00.946Z,109.30
2019-01-24T12:21:27.991Z,106.37
2019-01-24T12:23:55.038Z,115.40
2019-01-24T12:26:22.113Z,113.47
2019-01-24T12:28:49.219Z,114.50
2019-01-24T12:31:16.247Z,116.00
2019-01-24T12:33:43.292Z,111.87
2019-01-24T12:36:10.382Z,117.17
2019-01-24T12:38:37.499Z,112.67
2019-01-24T12:41:04.547Z,106.03
2019-01-24T12:43:31.637Z,112.70
2019-01-24T12:45:58.694Z,115.00
2019-01-24T12:48:25.983Z,112.77
2019-01-24T12:50:53.025Z,109.87
2019-01-24T12:53:20.079Z,108.50
2019-01-24T12:55:48.371Z,108.87
2019-01-24T12:58:15.462Z,106.17
2019-01-24T13:00:43.438Z,102.17
2019-01-24T13:03:10.527Z,102.27
2019-01-24T13:05:37.655Z,110.73
2019-01-24T13:08:05.458Z,106.90
2019-01-24T13:10:32.603Z,104.77
2019-01-24T13:13:01.525Z,100.47
2019-01-24T13:15:30.414Z,102.83
2019-01-24T13:17:57.499Z,114.67
2019-01-24T13:20:24.557Z,103.20
2019-01-24T13:22:51.626Z,100.30
2019-01-24T13:25:23.714Z,101.27
2019-01-24T13:27:50.969Z,103.43
2019-01-24T13:30:20.166Z,95.47
2019-01-24T13:32:47.546Z,98.13
2019-01-24T13:35:14.724Z,90.77
2019-01-24T13:37:43.549Z,93.13
2019-01-24T13:40:13.125Z,92.87
2019-01-24T13:42:40.210Z,98.23
2019-01-24T13:45:09.986Z,99.37
2019-01-24T13:47:38.121Z,100.70
2019-01-24T13:50:07.324Z,91.33
2019-01-24T13:52:34.372Z,96.87
2019-01-24T13:55:01.598Z,95.70
2019-01-24T13:57:31.437Z,106.27
2019-01-24T13:59:58.556Z,105.43
2019-01-24T14:02:25.602Z,94.17
2019-01-24T14:04:52.680Z,100.20
2019-01-24T14:07:19.722Z,104.07
2019-01-24T14:09:46.803Z,101.17
2019-01-24T14:12:13.886Z,100.53
2019-01-24T14:14:40.936Z,99.13
2019-01-24T14:17:09.836Z,108.00
2019-01-24T14:19:36.983Z,102.97
2019-01-24T14:22:04.131Z,93.40
2019-01-24T14:24:31.222Z,95.77
2019-01-24T14:26:58.286Z,94.37
2019-01-24T14:29:25.354Z,94.90
2019-01-24T14:31:52.735Z,105.07
2019-01-24T14:34:19.790Z,99.00
2019-01-24T14:36:47.040Z,102.20
2019-01-24T14:39:14.190Z,97.77
2019-01-24T14:41:41.211Z,100.73
2019-01-24T14:44:08.245Z,106.90
2019-01-24T14:46:35.364Z,103.57
2019-01-24T14:49:02.403Z,99.03
2019-01-24T14:51:29.502Z,92.40
2019-01-24T14:53:56.615Z,100.63
2019-01-24T14:56:23.738Z,90.23
2019-01-24T14:58:50.860Z,98.80
2019-01-24T15:01:24.298Z,97.97
2019-01-24T15:03:51.838Z,109.67
2019-01-24T15:06:19.087Z,108.17
2019-01-24T15:08:46.489Z,97.77
2019-01-24T15:11:13.757Z,100.03
2019-01-24T15:13:40.821Z,100.63
2019-01-24T15:16:08.104Z,98.23
2019-01-24T15:18:35.259Z,88.63
2019-01-24T15:21:02.494Z,103.93
2019-01-24T15:23:29.580Z,97.80
2019-01-24T15:25:56.649Z,101.87
2019-01-24T15:28:23.738Z,99.23
2019-01-24T15:30:50.811Z,99.13
2019-01-24T15:33:17.878Z,102.73
2019-01-24T15:35:44.956Z,115.47
2019-01-24T15:38:12.107Z,102.63
2019-01-24T15:40:40.354Z,102.90
2019-01-24T15:43:07.459Z,105.63
2019-01-24T15:45:34.728Z,107.97
2019-01-24T15:48:01.776Z,104.23
2019-01-24T15:50:28.981Z,99.57
2019-01-24T15:52:57.156Z,107.70
2019-01-24T15:55:26.680Z,102.90
2019-01-24T15:57:53.719Z,112.43
2019-01-24T16:00:24.396Z,113.90
2019-01-24T16:02:51.871Z,100.77
2019-01-24T16:05:18.965Z,102.47
2019-01-24T16:07:46.071Z,115.07
2019-01-24T16:10:14.534Z,112.97
2019-01-24T16:12:47.845Z,110.50
2019-01-24T16:15:17.542Z,101.57
2019-01-24T16:17:44.711Z,101.27
2019-01-24T16:20:14.958Z,111.47
2019-01-24T16:22:42.035Z,112.17
2019-01-24T16:25:10.060Z,100.63
2019-01-24T16:27:37.203Z,106.73
2019-01-24T16:30:07.764Z,112.97
2019-01-24T16:32:34.875Z,111.83
2019-01-24T16:35:02.284Z,103.80
2019-01-24T16:37:29.353Z,106.20
2019-01-24T16:39:57.534Z,106.37
2019-01-24T16:42:24.640Z,108.70
2019-01-24T16:44:51.715Z,105.90
2019-01-24T16:47:18.785Z,114.40
2019-01-24T16:49:45.933Z,113.20
2019-01-24T16:52:13.064Z,116.70
2019-01-24T16:54:40.169Z,111.27
2019-01-24T16:57:07.393Z,118.90
2019-01-24T16:59:34.578Z,105.63
2019-01-24T17:02:01.782Z,110.93
2019-01-24T17:04:29.093Z,111.03
2019-01-24T17:06:56.285Z,112.40
2019-01-24T17:09:23.338Z,115.50
2019-01-24T17:11:50.426Z,114.50
2019-01-24T17:14:22.267Z,113.03
2019-01-24T17:16:46.540Z,112.40
2019-01-24T17:19:13.726Z,105.37
2019-01-24T17:21:40.852Z,105.47
2019-01-24T17:24:07.995Z,106.87
2019-01-24T17:26:35.071Z,112.17
2019-01-24T17:29:02.441Z,102.33
2019-01-24T17:31:29.583Z,99.93
2019-01-24T17:33:56.691Z,112.23
2019-01-24T17:36:23.815Z,103.93
2019-01-24T17:38:50.859Z,111.60
2019-01-24T17:41:18.032Z,104.27
2019-01-24T17:43:45.171Z,107.00
2019-01-24T17:46:12.236Z,107.17
2019-01-24T17:48:39.322Z,112.57
2019-01-24T17:51:06.392Z,98.73
2019-01-24T17:53:33.413Z,104.90
2019-01-24T17:56:00.485Z,117.63
2019-01-24T17:58:27.654Z,108.23
2019-01-24T18:00:54.804Z,110.63
2019-01-24T18:03:21.910Z,102.07
2019-01-24T18:05:49.245Z,106.07
2019-01-24T18:08:16.384Z,106.07
2019-01-24T18:10:43.432Z,111.57
2019-01-24T18:13:10.507Z,107.13
2019-01-24T18:15:37.609Z,106.60
2019-01-24T18:18:08.036Z,118.67
2019-01-24T18:20:35.146Z,112.50
2019-01-24T18:23:02.550Z,111.77
2019-01-24T18:25:30.713Z,117.27
2019-01-24T18:27:57.739Z,112.20
2019-01-24T18:30:26.439Z,117.63
2019-01-24T18:32:54.002Z,109.80
2019-01-24T18:35:21.239Z,113.23
2019-01-24T18:37:48.582Z,112.27
2019-01-24T18:40:17.921Z,113.43
2019-01-24T18:42:45.272Z,123.57
2019-01-24T18:45:15.361Z,109.23
2019-01-24T18:47:42.726Z,116.07
2019-01-24T18:50:13.522Z,110.77
2019-01-24T18:52:40.657Z,114.93
2019-01-24T18:55:08.122Z,117.30
2019-01-24T18:57:35.177Z,115.60
2019-01-24T19:00:03.265Z,109.40
2019-01-24T19:02:30.379Z,110.03
2019-01-24T19:04:57.449Z,116.63
2019-01-24T19:07:24.510Z,114.60
2019-01-24T19:09:51.605Z,116.93
2019-01-24T19:12:18.755Z,111.37
2019-01-24T19:14:46.951Z,120.47
2019-01-24T19:17:14.137Z,120.57
2019-01-24T19:19:41.226Z,117.63
2019-01-24T19:22:08.313Z,111.63
2019-01-24T19:24:35.529Z,115.33
2019-01-24T19:27:02.609Z,128.07
2019-01-24T19:29:29.772Z,120.47
2019-01-24T19:31:56.894Z,129.93
2019-01-24T19:34:23.943Z,123.30
2019-01-24T19:36:50.979Z,113.70
2019-01-24T19:39:18.086Z,116.83
2019-01-24T19:41:45.208Z,117.23
2019-01-24T19:44:15.844Z,125.47
2019-01-24T19:46:41.384Z,117.30
2019-01-24T19:49:08.459Z,123.40
2019-01-24T19:51:35.670Z,120.03
2019-01-24T19:54:03.428Z,112.17
2019-01-24T19:56:30.494Z,116.97
2019-01-24T19:58:57.677Z,115.23
2019-01-24T20:01:25.459Z,119.97
2019-01-24T20:03:54.614Z,119.20
2019-01-24T20:06:21.727Z,104.30
2019-01-24T20:08:48.835Z,128.17
2019-01-24T20:11:15.922Z,119.67
2019-01-24T20:13:43.056Z,126.03
2019-01-24T20:16:10.104Z,131.20
2019-01-24T20:18:37.218Z,127.83
2019-01-24T20:21:04.577Z,143.10
2019-01-24T20:23:32.875Z,138.37
2019-01-24T20:25:59.965Z,132.80
2019-01-24T20:28:27.073Z,121.63
2019-01-24T20:30:54.297Z,126.63
2019-01-24T20:33:21.482Z,128.27
2019-01-24T20:35:54.418Z,133.07
2019-01-24T20:38:21.548Z,129.50
2019-01-24T20:40:48.672Z,124.93
2019-01-24T20:43:16.628Z,119.97
2019-01-24T20:45:43.723Z,125.87
2019-01-24T20:48:10.870Z,115.93
2019-01-24T20:50:38.152Z,126.20
2019-01-24T20:53:05.258Z,123.77
2019-01-24T20:55:32.373Z,130.40
2019-01-24T20:58:01.468Z,128.50
2019-01-24T21:00:29.032Z,134.23
2019-01-24T21:02:56.152Z,120.60
2019-01-24T21:05:23.681Z,137.07
2019-01-24T21:07:50.858Z,134.13
2019-01-24T21:10:20.462Z,135.23
2019-01-24T21:12:47.565Z,135.97
2019-01-24T21:15:15.167Z,130.50
2019-01-24T21:17:42.384Z,143.93
2019-01-24T21:20:12.080Z,137.67
2019-01-24T21:22:39.196Z,133.30
2019-01-24T21:25:08.559Z,128.83
2019-01-24T21:27:36.949Z,139.80
2019-01-24T21:30:06.514Z,137.67
2019-01-24T21:32:33.633Z,131.20
2019-01-24T21:38:26.272Z,129.43
2019-01-24T21:40:53.341Z,128.90
2019-01-24T21:43:20.429Z,133.63
2019-01-24T21:45:47.541Z,131.87
2019-01-24T21:48:14.701Z,131.67
2019-01-24T21:50:42.364Z,138.73
2019-01-24T21:53:09.492Z,132.63
2019-01-24T21:56:13.974Z,130.27
2019-01-24T21:58:41.237Z,124.73
2019-01-24T22:01:09.434Z,154.07
2019-01-24T22:03:36.649Z,128.37
2019-01-24T22:06:03.799Z,125.70
2019-01-24T22:08:31.208Z,140.33
2019-01-24T22:10:58.314Z,131.83
2019-01-24T22:13:25.478Z,136.23
2019-01-24T22:15:52.545Z,144.87
2019-01-24T22:18:19.730Z,137.17
2019-01-24T22:20:46.842Z,135.37
2019-01-24T22:23:14.513Z,144.10
2019-01-24T22:25:42.409Z,139.50
2019-01-24T22:28:09.540Z,146.97
2019-01-24T22:30:53.142Z,147.60
2019-01-24T22:33:20.267Z,145.83
2019-01-24T22:35:47.326Z,142.17
2019-01-24T22:38:14.840Z,146.87
2019-01-24T22:40:41.901Z,144.00
2019-01-24T22:43:08.962Z,149.93
2019-01-24T22:45:36.160Z,143.53
2019-01-24T22:48:04.548Z,148.27
2019-01-24T22:50:31.615Z,146.00
2019-01-24T22:52:58.805Z,154.83
2019-01-24T22:55:25.904Z,143.67
2019-01-24T22:57:52.988Z,139.10
2019-01-24T23:00:53.607Z,141.87
2019-01-24T23:03:30.197Z,139.73
2019-01-24T23:05:57.307Z,146.23
2019-01-24T23:08:24.447Z,150.20
2019-01-24T23:10:51.691Z,150.20
2019-01-24T23:13:18.783Z,153.63
2019-01-24T23:15:45.881Z,158.33
2019-01-24T23:18:13.020Z,155.17
2019-01-24T23:20:40.178Z,135.10
2019-01-24T23:23:07.344Z,148.50
2019-01-24T23:25:34.476Z,164.67
2019-01-24T23:28:01.818Z,155.07
2019-01-24T23:30:28.874Z,166.03
2019-01-24T23:33:01.796Z,166.90
2019-01-24T23:35:28.965Z,174.30
2019-01-24T23:37:56.136Z,175.83
2019-01-24T23:40:23.206Z,165.10
2019-01-24T23:42:51.486Z,176.90
2019-01-24T23:45:18.590Z,180.43
2019-01-24T23:47:45.666Z,167.57
2019-01-24T23:50:12.871Z,196.33
2019-01-24T23:52:39.958Z,157.47
2019-01-24T23:55:07.228Z,188.50
2019-01-24T23:57:36.601Z,186.67
